createdAt,value
2022-09-20T00:01:35.841Z,8.45
2022-09-20T00:04:05.621Z,4.65
2022-09-20T00:06:33.432Z,7.05
2022-09-20T00:09:01.399Z,8.35
2022-09-20T00:11:31.099Z,8.73
2022-09-20T00:14:00.151Z,6.85
2022-09-20T00:16:32.964Z,9.98
2022-09-20T00:19:03.682Z,12.32
2022-09-20T00:21:33.026Z,12.93
2022-09-20T00:24:00.167Z,9.82
2022-09-20T00:26:28.666Z,12.65
2022-09-20T00:28:55.687Z,4.30
2022-09-20T00:31:22.588Z,6.22
2022-09-20T00:34:07.861Z,8.38
2022-09-20T00:36:34.603Z,10.05
2022-09-20T00:39:02.355Z,6.43
2022-09-20T00:41:31.095Z,3.72
2022-09-20T00:43:58.215Z,9.77
2022-09-20T00:46:39.207Z,9.02
2022-09-20T00:49:14.587Z,12.02
2022-09-20T00:51:45.775Z,12.80
2022-09-20T00:54:19.992Z,17.30
2022-09-20T00:56:47.193Z,13.88
2022-09-20T00:59:28.209Z,6.20
2022-09-20T01:02:17.475Z,8.85
2022-09-20T01:04:45.103Z,7.82
2022-09-20T01:07:15.470Z,5.85
2022-09-20T01:09:42.229Z,7.55
2022-09-20T01:12:16.151Z,3.70
2022-09-20T01:14:45.914Z,18.00
2022-09-20T01:17:13.772Z,7.70
2022-09-20T01:20:09.500Z,8.38
2022-09-20T01:23:08.335Z,7.90
2022-09-20T01:25:47.157Z,10.20
2022-09-20T01:28:14.932Z,10.38
2022-09-20T01:30:57.146Z,6.60
2022-09-20T01:35:58.659Z,9.30
2022-09-20T01:38:25.282Z,5.20
2022-09-20T01:41:26.941Z,10.45
2022-09-20T01:44:05.048Z,11.93
2022-09-20T01:46:33.950Z,10.38
2022-09-20T01:49:33.427Z,8.50
2022-09-20T01:52:24.864Z,9.00
2022-09-20T01:55:28.301Z,19.83
2022-09-20T01:58:03.815Z,7.90
2022-09-20T02:01:09.815Z,7.30
2022-09-20T02:03:59.719Z,6.47
2022-09-20T02:06:45.278Z,12.45
2022-09-20T02:09:45.587Z,6.90
2022-09-20T02:12:18.219Z,5.50
2022-09-20T02:14:54.053Z,5.03
2022-09-20T02:17:29.720Z,8.23
2022-09-20T02:20:21.182Z,11.70
2022-09-20T02:23:12.921Z,13.30
2022-09-20T02:25:58.509Z,5.45
2022-09-20T02:28:53.732Z,10.20
2022-09-20T02:31:31.678Z,8.40
2022-09-20T02:34:27.772Z,8.48
2022-09-20T02:37:09.781Z,4.57
2022-09-20T02:39:45.278Z,6.28
2022-09-20T02:42:20.991Z,7.72
2022-09-20T02:44:54.728Z,11.60
2022-09-20T02:47:34.135Z,10.90
2022-09-20T02:50:15.923Z,9.27
2022-09-20T02:53:20.968Z,8.95
2022-09-20T02:56:08.894Z,5.80
2022-09-20T02:58:54.722Z,8.70
2022-09-20T03:01:24.435Z,8.35
2022-09-20T03:04:11.998Z,8.18
2022-09-20T03:07:05.020Z,4.43
2022-09-20T03:09:44.889Z,8.90
2022-09-20T03:12:40.356Z,10.43
2022-09-20T03:15:41.843Z,8.32
2022-09-20T03:18:14.666Z,11.20
2022-09-20T03:21:17.278Z,12.70
2022-09-20T03:24:02.756Z,11.80
2022-09-20T03:26:54.512Z,7.50
2022-09-20T03:29:39.967Z,7.68
2022-09-20T03:32:18.068Z,7.18
2022-09-20T03:35:03.828Z,4.80
2022-09-20T03:37:56.250Z,4.53
2022-09-20T03:41:27.287Z,6.90
2022-09-20T03:43:56.622Z,12.63
2022-09-20T03:46:30.234Z,11.90
2022-09-20T03:49:21.958Z,8.77
2022-09-20T03:52:01.023Z,10.80
2022-09-20T03:54:42.769Z,10.02
2022-09-20T03:57:37.680Z,2.67
2022-09-20T04:00:12.046Z,4.97
2022-09-20T04:03:19.787Z,3.45
2022-09-20T04:06:19.789Z,5.82
2022-09-20T04:09:14.787Z,10.07
2022-09-20T04:11:55.014Z,9.95
2022-09-20T04:15:04.322Z,8.00
2022-09-20T04:18:32.473Z,11.02
2022-09-20T04:21:13.463Z,5.25
2022-09-20T04:23:58.767Z,3.55
2022-09-20T04:26:31.356Z,3.28
2022-09-20T04:29:28.918Z,5.10
2022-09-20T04:32:30.898Z,5.93
2022-09-20T04:35:50.119Z,11.35
2022-09-20T04:38:19.514Z,8.23
2022-09-20T04:41:10.023Z,7.32
2022-09-20T04:44:14.367Z,8.90
2022-09-20T04:46:58.967Z,6.10
2022-09-20T04:49:34.709Z,11.15
2022-09-20T04:52:37.588Z,10.65
2022-09-20T04:55:29.015Z,5.13
2022-09-20T04:58:02.016Z,5.50
2022-09-20T05:01:03.721Z,7.90
2022-09-20T05:03:49.013Z,12.75
2022-09-20T05:06:37.340Z,17.55
2022-09-20T05:09:29.812Z,13.10
2022-09-20T05:12:15.076Z,10.80
2022-09-20T05:15:10.037Z,17.00
2022-09-20T05:17:42.813Z,8.23
2022-09-20T05:20:13.336Z,13.48
2022-09-20T05:23:44.831Z,9.63
2022-09-20T05:26:13.635Z,10.48
2022-09-20T05:29:02.333Z,7.68
2022-09-20T05:31:46.616Z,5.55
2022-09-20T05:34:25.631Z,7.95
2022-09-20T05:37:10.427Z,11.38
2022-09-20T05:39:49.648Z,9.18
2022-09-20T05:42:39.127Z,7.38
2022-09-20T05:45:47.425Z,7.05
2022-09-20T05:48:21.648Z,6.25
2022-09-20T05:51:03.827Z,8.90
2022-09-20T05:53:48.772Z,9.18
2022-09-20T05:57:20.208Z,10.45
2022-09-20T06:00:04.855Z,9.05
2022-09-20T06:03:22.007Z,11.55
2022-09-20T06:06:10.448Z,5.93
2022-09-20T06:09:00.285Z,7.13
2022-09-20T06:11:56.861Z,14.07
2022-09-20T06:14:31.364Z,4.53
2022-09-20T06:17:22.196Z,4.97
2022-09-20T06:20:03.046Z,9.07
2022-09-20T06:22:42.753Z,8.80
2022-09-20T06:25:09.415Z,7.13
2022-09-20T06:28:00.149Z,9.07
2022-09-20T06:30:33.105Z,14.50
2022-09-20T06:33:10.470Z,10.95
2022-09-20T06:35:42.962Z,8.75
2022-09-20T06:38:46.951Z,12.32
2022-09-20T06:41:29.795Z,8.02
2022-09-20T06:43:59.695Z,13.60
2022-09-20T06:46:28.091Z,5.38
2022-09-20T06:48:55.542Z,4.82
2022-09-20T06:51:23.351Z,15.02
2022-09-20T06:53:50.313Z,12.32
2022-09-20T06:56:20.418Z,8.82
2022-09-20T06:58:47.367Z,8.55
2022-09-20T07:01:14.582Z,7.85
2022-09-20T07:03:42.302Z,8.55
2022-09-20T07:06:09.507Z,10.77
2022-09-20T07:08:36.420Z,8.88
2022-09-20T07:11:05.400Z,5.38
2022-09-20T07:13:32.279Z,7.13
2022-09-20T07:16:07.533Z,11.88
2022-09-20T07:18:35.259Z,12.65
2022-09-20T07:21:02.143Z,7.07
2022-09-20T07:23:29.999Z,6.35
2022-09-20T07:26:01.005Z,11.20
2022-09-20T07:28:29.380Z,9.15
2022-09-20T07:30:56.086Z,6.10
2022-09-20T07:33:24.900Z,4.22
2022-09-20T07:35:56.339Z,9.00
2022-09-20T07:38:23.445Z,5.55
2022-09-20T07:40:58.049Z,6.13
2022-09-20T07:43:25.464Z,4.32
2022-09-20T07:45:58.002Z,7.20
2022-09-20T07:48:27.154Z,9.15
2022-09-20T07:50:55.758Z,11.20
2022-09-20T07:53:22.660Z,8.38
2022-09-20T07:56:01.520Z,12.60
2022-09-20T07:58:29.873Z,4.72
2022-09-20T08:00:59.192Z,5.88
2022-09-20T08:03:26.818Z,6.78
2022-09-20T08:06:00.384Z,7.60
2022-09-20T08:08:27.178Z,5.82
2022-09-20T08:10:55.719Z,8.20
2022-09-20T08:16:12.016Z,8.10
2022-09-20T08:18:38.909Z,4.38
2022-09-20T08:21:10.192Z,5.22
2022-09-20T08:23:42.195Z,12.10
2022-09-20T08:26:13.059Z,4.45
2022-09-20T08:28:41.678Z,5.50
2022-09-20T08:31:17.213Z,3.35
2022-09-20T08:33:45.051Z,6.90
2022-09-20T08:36:15.066Z,4.43
2022-09-20T08:41:38.250Z,7.32
2022-09-20T08:44:11.845Z,4.47
2022-09-20T08:47:02.448Z,4.63
2022-09-20T08:49:30.185Z,8.75
2022-09-20T08:51:58.900Z,5.85
2022-09-20T08:54:32.256Z,4.20
2022-09-20T08:57:07.092Z,5.72
2022-09-20T08:59:34.209Z,13.25
2022-09-20T09:02:01.280Z,4.80
2022-09-20T09:04:48.645Z,5.03
2022-09-20T09:07:21.695Z,3.83
2022-09-20T09:09:51.857Z,9.65
2022-09-20T09:12:25.218Z,6.28
2022-09-20T09:14:57.280Z,6.55
2022-09-20T09:17:27.908Z,7.60
2022-09-20T09:19:58.614Z,9.25
2022-09-20T09:22:35.215Z,3.45
2022-09-20T09:25:09.542Z,6.55
2022-09-20T09:27:53.868Z,6.82
2022-09-20T09:30:27.177Z,8.73
2022-09-20T09:33:20.080Z,6.22
2022-09-20T09:36:07.991Z,6.13
2022-09-20T09:38:40.325Z,5.28
2022-09-20T09:41:24.354Z,7.90
2022-09-20T09:44:02.712Z,3.55
2022-09-20T09:46:34.431Z,5.93
2022-09-20T09:49:12.083Z,4.05
2022-09-20T09:51:42.363Z,4.10
2022-09-20T09:54:17.754Z,4.97
2022-09-20T09:57:22.018Z,7.03
2022-09-20T10:00:21.308Z,7.60
2022-09-20T10:03:24.908Z,7.68
2022-09-20T10:06:22.997Z,5.47
2022-09-20T10:09:14.069Z,8.75
2022-09-20T10:11:59.247Z,6.53
2022-09-20T10:14:59.942Z,8.35
2022-09-20T10:17:37.581Z,4.40
2022-09-20T10:20:41.799Z,7.85
2022-09-20T10:24:03.124Z,5.43
2022-09-20T10:26:55.277Z,6.88
2022-09-20T10:29:39.212Z,5.78
2022-09-20T10:32:32.215Z,1.45
2022-09-20T10:35:14.321Z,3.05
2022-09-20T10:40:58.020Z,2.42
2022-09-20T10:43:38.594Z,4.10
2022-09-20T10:46:33.319Z,3.22
2022-09-20T10:49:23.608Z,6.90
2022-09-20T10:52:08.290Z,1.42
2022-09-20T10:54:59.619Z,3.38
2022-09-20T10:57:46.805Z,0.90
2022-09-20T11:00:32.393Z,3.25
2022-09-20T11:03:36.823Z,5.03
2022-09-20T11:06:37.538Z,1.05
2022-09-20T11:09:10.618Z,2.30
2022-09-20T11:11:45.526Z,1.33
2022-09-20T11:14:21.634Z,1.23
2022-09-20T11:16:57.674Z,1.10
2022-09-20T11:19:28.261Z,3.90
2022-09-20T11:22:09.631Z,1.27
2022-09-20T11:24:36.294Z,2.35
2022-09-20T11:27:24.411Z,2.45
2022-09-20T11:30:00.952Z,1.63
2022-09-20T11:32:36.575Z,1.10
2022-09-20T11:35:12.549Z,1.65
2022-09-20T11:40:40.629Z,3.77
2022-09-20T11:43:09.696Z,2.05
2022-09-20T11:45:40.107Z,2.15
2022-09-20T11:48:14.251Z,2.60
2022-09-20T11:51:05.427Z,0.52
2022-09-20T11:54:01.655Z,6.93
2022-09-20T11:56:31.019Z,1.75
2022-09-20T11:59:03.757Z,6.82
2022-09-20T12:01:38.079Z,4.78
2022-09-20T12:04:33.191Z,4.03
2022-09-20T12:07:10.583Z,0.40
2022-09-20T12:09:42.445Z,5.72
2022-09-20T12:12:28.212Z,1.30
2022-09-20T12:15:00.542Z,2.92
2022-09-20T12:17:45.956Z,4.28
2022-09-20T12:20:44.833Z,3.15
2022-09-20T12:23:42.847Z,2.70
2022-09-20T12:26:22.770Z,4.68
2022-09-20T12:28:55.344Z,1.23
2022-09-20T12:31:22.166Z,2.88
2022-09-20T12:34:01.107Z,7.05
2022-09-20T12:36:35.212Z,1.38
2022-09-20T12:39:11.013Z,1.45
2022-09-20T12:41:54.755Z,3.10
2022-09-20T12:44:55.984Z,0.63
2022-09-20T12:47:29.546Z,2.22
2022-09-20T12:50:23.804Z,2.72
2022-09-20T12:52:57.671Z,5.88
2022-09-20T12:55:27.345Z,2.17
2022-09-20T12:58:15.430Z,2.90
2022-09-20T13:01:14.415Z,2.85
2022-09-20T13:03:42.563Z,4.35
2022-09-20T13:06:10.898Z,2.85
2022-09-20T13:09:06.014Z,1.27
2022-09-20T13:11:52.297Z,4.85
2022-09-20T13:14:26.161Z,3.72
2022-09-20T13:17:00.664Z,0.88
2022-09-20T13:19:38.991Z,5.82
2022-09-20T13:22:18.823Z,1.10
2022-09-20T13:24:48.741Z,4.80
2022-09-20T13:27:24.402Z,2.88
2022-09-20T13:29:51.551Z,1.73
2022-09-20T13:32:31.585Z,0.75
2022-09-20T13:35:18.287Z,3.15
2022-09-20T13:37:44.969Z,1.70
2022-09-20T13:40:20.906Z,0.38
2022-09-20T13:42:50.007Z,9.73
2022-09-20T13:45:18.021Z,7.25
2022-09-20T13:47:49.784Z,6.45
2022-09-20T13:50:26.782Z,2.35
2022-09-20T13:52:59.365Z,2.72
2022-09-20T13:55:33.277Z,5.13
2022-09-20T13:58:20.000Z,3.05
2022-09-20T14:00:54.482Z,3.28
2022-09-20T14:03:23.242Z,4.50
2022-09-20T14:06:02.376Z,7.88
2022-09-20T14:08:37.435Z,6.68
2022-09-20T14:11:36.999Z,3.83
2022-09-20T14:14:06.269Z,4.38
2022-09-20T14:16:40.907Z,7.00
2022-09-20T14:19:08.841Z,6.05
2022-09-20T14:21:37.346Z,5.05
2022-09-20T14:24:13.349Z,6.63
2022-09-20T14:26:59.599Z,4.82
2022-09-20T14:29:53.502Z,4.07
2022-09-20T14:32:20.312Z,4.53
2022-09-20T14:34:51.545Z,4.35
2022-09-20T14:37:24.330Z,1.87
2022-09-20T14:39:56.542Z,2.97
2022-09-20T14:42:27.683Z,3.03
2022-09-20T14:44:54.905Z,0.65
2022-09-20T14:47:50.900Z,6.18
2022-09-20T14:50:33.331Z,3.72
2022-09-20T14:53:03.575Z,4.22
2022-09-20T14:55:37.154Z,2.08
2022-09-20T14:58:13.794Z,1.75
2022-09-20T15:00:47.624Z,1.13
2022-09-20T15:03:17.164Z,0.75
2022-09-20T15:05:48.686Z,1.25
2022-09-20T15:08:15.656Z,3.17
2022-09-20T15:10:42.338Z,1.58
2022-09-20T15:13:11.208Z,1.27
2022-09-20T15:15:37.960Z,5.15
2022-09-20T15:18:12.815Z,1.67
2022-09-20T15:20:39.506Z,1.60
2022-09-20T15:23:06.171Z,1.65
2022-09-20T15:25:33.349Z,1.05
2022-09-20T15:28:01.073Z,1.45
2022-09-20T15:30:27.741Z,2.88
2022-09-20T15:32:54.368Z,0.93
2022-09-20T15:35:20.991Z,0.82
2022-09-20T15:37:47.608Z,3.60
2022-09-20T15:40:15.205Z,4.90
2022-09-20T15:42:42.004Z,2.55
2022-09-20T15:45:10.550Z,1.45
2022-09-20T15:47:38.512Z,3.05
2022-09-20T15:50:09.439Z,2.20
2022-09-20T15:52:39.837Z,3.67
2022-09-20T15:55:08.246Z,1.90
2022-09-20T15:57:35.361Z,2.72
2022-09-20T16:00:02.260Z,3.72
2022-09-20T16:02:35.748Z,3.38
2022-09-20T16:05:02.537Z,7.78
2022-09-20T16:07:29.177Z,2.15
2022-09-20T16:09:56.700Z,1.02
2022-09-20T16:12:25.218Z,3.35
2022-09-20T16:14:51.885Z,1.30
2022-09-20T16:17:19.458Z,3.10
2022-09-20T16:19:47.626Z,1.42
2022-09-20T16:22:14.745Z,3.03
2022-09-20T16:24:41.374Z,1.90
2022-09-20T16:27:08.609Z,4.90
2022-09-20T16:29:35.892Z,1.88
2022-09-20T16:32:03.635Z,3.30
2022-09-20T16:34:35.688Z,3.63
2022-09-20T16:39:34.684Z,5.60
2022-09-20T16:42:04.640Z,7.35
2022-09-20T16:44:35.605Z,4.60
2022-09-20T16:47:07.945Z,4.90
2022-09-20T16:49:36.180Z,9.15
2022-09-20T16:52:07.274Z,12.02
2022-09-20T16:54:34.460Z,10.75
2022-09-20T16:57:01.515Z,6.10
2022-09-20T16:59:28.331Z,11.00
2022-09-20T17:01:55.056Z,7.70
2022-09-20T17:04:21.976Z,1.85
2022-09-20T17:06:51.744Z,2.33
2022-09-20T17:09:18.611Z,4.07
2022-09-20T17:11:49.344Z,1.83
2022-09-20T17:14:18.797Z,1.52
2022-09-20T17:16:49.099Z,2.97
2022-09-20T17:19:18.501Z,2.53
2022-09-20T17:21:51.070Z,4.13
2022-09-20T17:24:22.454Z,4.30
2022-09-20T17:26:54.148Z,2.50
2022-09-20T17:29:21.704Z,4.43
2022-09-20T17:31:55.537Z,2.70
2022-09-20T17:34:23.988Z,3.15
2022-09-20T17:36:51.163Z,4.22
2022-09-20T17:39:18.812Z,6.90
2022-09-20T17:41:47.692Z,4.72
2022-09-20T17:44:15.971Z,3.40
2022-09-20T17:46:45.870Z,3.92
2022-09-20T17:49:15.386Z,2.85
2022-09-20T17:51:44.797Z,3.10
2022-09-20T17:54:15.738Z,3.35
2022-09-20T17:56:46.345Z,4.47
2022-09-20T17:59:18.120Z,5.97
2022-09-20T18:01:47.621Z,4.95
2022-09-20T18:04:14.500Z,3.40
2022-09-20T18:06:52.197Z,4.88
2022-09-20T18:09:21.943Z,2.63
2022-09-20T18:11:51.058Z,5.28
2022-09-20T18:14:23.179Z,3.75
2022-09-20T18:16:54.990Z,5.65
2022-09-20T18:19:22.727Z,4.70
2022-09-20T18:21:49.721Z,4.53
2022-09-20T18:24:16.419Z,3.35
2022-09-20T18:26:44.031Z,5.45
2022-09-20T18:29:12.340Z,5.45
2022-09-20T18:31:47.494Z,4.95
2022-09-20T18:34:17.949Z,3.92
2022-09-20T18:36:48.263Z,6.38
2022-09-20T18:39:14.897Z,5.45
2022-09-20T18:41:43.886Z,8.05
2022-09-20T18:44:14.339Z,7.45
2022-09-20T18:46:41.617Z,4.85
2022-09-20T18:49:09.520Z,5.25
2022-09-20T18:51:39.660Z,7.22
2022-09-20T18:54:10.013Z,8.27
2022-09-20T18:56:38.863Z,11.32
2022-09-20T18:59:14.567Z,7.82
2022-09-20T19:01:50.589Z,6.40
2022-09-20T19:04:41.708Z,10.25
2022-09-20T19:07:39.225Z,11.77
2022-09-20T19:10:05.847Z,8.82
2022-09-20T19:13:00.638Z,21.50
2022-09-20T19:15:45.944Z,25.45
2022-09-20T19:18:49.547Z,30.50
2022-09-20T19:21:24.962Z,27.75
2022-09-20T19:24:09.831Z,34.42
2022-09-20T19:26:40.019Z,21.27
2022-09-20T19:29:27.847Z,17.02
2022-09-20T19:32:00.365Z,22.30
2022-09-20T19:34:30.139Z,19.05
2022-09-20T19:37:29.605Z,15.10
2022-09-20T19:40:23.927Z,11.38
2022-09-20T19:43:10.769Z,11.82
2022-09-20T19:46:08.009Z,14.15
2022-09-20T19:48:34.630Z,10.00
2022-09-20T19:51:04.522Z,16.05
2022-09-20T19:53:31.508Z,14.63
2022-09-20T19:56:17.231Z,17.35
2022-09-20T19:58:44.904Z,11.25
2022-09-20T20:01:12.053Z,13.02
2022-09-20T20:03:39.089Z,11.40
2022-09-20T20:06:20.854Z,12.18
2022-09-20T20:08:54.878Z,11.98
2022-09-20T20:11:40.979Z,11.15
2022-09-20T20:14:20.760Z,13.00
2022-09-20T20:17:20.702Z,14.38
2022-09-20T20:19:54.170Z,15.45
2022-09-20T20:22:20.831Z,11.85
2022-09-20T20:24:51.979Z,13.70
2022-09-20T20:27:19.586Z,11.97
2022-09-20T20:29:46.410Z,9.88
2022-09-20T20:32:13.473Z,12.32
2022-09-20T20:34:40.148Z,13.57
2022-09-20T20:37:07.575Z,15.40
2022-09-20T20:39:34.366Z,13.77
2022-09-20T20:42:06.143Z,11.63
2022-09-20T20:44:36.839Z,11.02
2022-09-20T20:47:05.936Z,10.63
2022-09-20T20:49:32.950Z,10.05
2022-09-20T20:52:03.992Z,12.68
2022-09-20T20:54:32.050Z,13.25
2022-09-20T20:56:59.398Z,12.68
2022-09-20T20:59:26.172Z,10.75
2022-09-20T21:02:05.778Z,9.00
2022-09-20T21:05:15.441Z,13.73
2022-09-20T21:14:34.812Z,9.48
2022-09-20T21:17:58.868Z,10.70
2022-09-20T21:24:29.655Z,12.30
2022-09-20T21:26:56.295Z,10.75
2022-09-20T21:29:23.122Z,12.98
2022-09-20T21:31:49.804Z,8.35
2022-09-20T21:34:16.724Z,10.52
2022-09-20T21:36:44.631Z,7.88
2022-09-20T21:39:12.023Z,6.47
2022-09-20T21:41:39.507Z,8.57
2022-09-20T21:44:07.569Z,8.05
2022-09-20T21:46:39.901Z,21.27
2022-09-20T21:49:08.535Z,20.27
2022-09-20T21:51:36.144Z,21.50
2022-09-20T21:54:03.928Z,23.50
2022-09-20T21:56:33.172Z,24.95
2022-09-20T21:59:02.824Z,23.67
2022-09-20T22:01:34.911Z,20.73
2022-09-20T22:04:06.939Z,9.82
2022-09-20T22:06:38.809Z,12.68
2022-09-20T22:09:13.856Z,10.63
2022-09-20T22:11:43.537Z,16.75
2022-09-20T22:14:11.474Z,9.98
2022-09-20T22:16:40.192Z,9.20
2022-09-20T22:19:09.731Z,8.38
2022-09-20T22:21:39.176Z,14.05
2022-09-20T22:24:07.904Z,5.28
2022-09-20T22:26:40.379Z,5.07
2022-09-20T22:29:07.644Z,8.25
2022-09-20T22:31:37.461Z,6.72
2022-09-20T22:34:06.303Z,6.15
2022-09-20T22:36:39.943Z,5.35
2022-09-20T22:39:08.812Z,6.70
2022-09-20T22:41:37.301Z,5.95
2022-09-20T22:44:05.158Z,10.70
2022-09-20T22:46:33.024Z,6.95
2022-09-20T22:48:59.680Z,8.70
2022-09-20T22:51:31.360Z,7.15
2022-09-20T22:53:58.027Z,7.53
2022-09-20T22:56:29.379Z,5.10
2022-09-20T22:59:00.397Z,12.35
2022-09-20T23:01:32.726Z,6.07
2022-09-20T23:04:02.162Z,4.18
2022-09-20T23:06:38.390Z,7.78
2022-09-20T23:09:07.967Z,4.32
2022-09-20T23:11:35.511Z,6.50
2022-09-20T23:14:06.840Z,5.45
2022-09-20T23:16:35.945Z,8.93
2022-09-20T23:19:04.111Z,5.97
2022-09-20T23:21:31.366Z,6.57
2022-09-20T23:24:00.420Z,7.05
2022-09-20T23:26:29.776Z,6.00
2022-09-20T23:29:02.489Z,9.27
2022-09-20T23:31:30.605Z,12.38
2022-09-20T23:33:59.465Z,9.38
2022-09-20T23:36:28.914Z,10.88
2022-09-20T23:38:58.378Z,11.52
2022-09-20T23:41:26.744Z,13.30
2022-09-20T23:43:54.088Z,9.02
2022-09-20T23:46:22.497Z,7.47
2022-09-20T23:48:50.450Z,6.72
2022-09-20T23:51:20.340Z,8.68
2022-09-20T23:53:47.149Z,6.72
2022-09-20T23:56:14.558Z,13.77
2022-09-20T23:58:43.851Z,7.93
